sensor_id;sensor_type;location;lat;lon;timestamp;pressure;altitude;pressure_sealevel;temperature;humidity
70407;BME280;57821;52.202;0.154;2023-04-23T00:01:03;100225.16;;;10.87;66.28
70407;BME280;57821;52.202;0.154;2023-04-23T00:03:31;100223.41;;;10.89;66.97
70407;BME280;57821;52.202;0.154;2023-04-23T00:05:58;100220.84;;;10.86;67.14
70407;BME280;57821;52.202;0.154;2023-04-23T00:08:25;100220.84;;;10.86;67.34
70407;BME280;57821;52.202;0.154;2023-04-23T00:10:52;100219.09;;;10.85;67.27
70407;BME280;57821;52.202;0.154;2023-04-23T00:13:19;100215.69;;;10.83;67.28
70407;BME280;57821;52.202;0.154;2023-04-23T00:15:46;100212.28;;;10.78;67.58
70407;BME280;57821;52.202;0.154;2023-04-23T00:18:13;100220.03;;;10.81;68.12
70407;BME280;57821;52.202;0.154;2023-04-23T00:20:39;100208.88;;;10.76;68.17
70407;BME280;57821;52.202;0.154;2023-04-23T00:23:06;100212.28;;;10.78;68.44
70407;BME280;57821;52.202;0.154;2023-04-23T00:25:33;100208.03;;;10.72;68.49
70407;BME280;57821;52.202;0.154;2023-04-23T00:27:59;100214.09;;;10.73;68.54
70407;BME280;57821;52.202;0.154;2023-04-23T00:30:26;100202.91;;;10.69;68.62
70407;BME280;57821;52.202;0.154;2023-04-23T00:32:52;100195.13;;;10.67;69.51
70407;BME280;57821;52.202;0.154;2023-04-23T00:35:19;100195.13;;;10.67;69.82
70407;BME280;57821;52.202;0.154;2023-04-23T00:37:46;100189.13;;;10.65;70.76
70407;BME280;57821;52.202;0.154;2023-04-23T00:40:12;100194.28;;;10.67;70.62
70407;BME280;57821;52.202;0.154;2023-04-23T00:42:39;100197.72;;;10.67;70.68
70407;BME280;57821;52.202;0.154;2023-04-23T00:45:06;100187.34;;;10.67;70.87
70407;BME280;57821;52.202;0.154;2023-04-23T00:47:34;100189.09;;;10.67;71.54
70407;BME280;57821;52.202;0.154;2023-04-23T00:50:01;100181.31;;;10.68;71.92
70407;BME280;57821;52.202;0.154;2023-04-23T00:52:28;100177.84;;;10.69;72.60
70407;BME280;57821;52.202;0.154;2023-04-23T00:54:57;100176.09;;;10.72;72.48
70407;BME280;57821;52.202;0.154;2023-04-23T00:57:24;100170.91;;;10.72;72.53
70407;BME280;57821;52.202;0.154;2023-04-23T00:59:52;100159.69;;;10.71;73.48
70407;BME280;57821;52.202;0.154;2023-04-23T01:02:19;100178.63;;;10.76;73.06
70407;BME280;57821;52.202;0.154;2023-04-23T01:04:47;100163.06;;;10.75;73.45
70407;BME280;57821;52.202;0.154;2023-04-23T01:07:15;100156.16;;;10.74;73.48
70407;BME280;57821;52.202;0.154;2023-04-23T01:09:42;100168.28;;;10.73;74.36
70407;BME280;57821;52.202;0.154;2023-04-23T01:12:09;100155.44;;;10.65;74.34
70407;BME280;57821;52.202;0.154;2023-04-23T01:14:36;100166.69;;;10.63;74.37
70407;BME280;57821;52.202;0.154;2023-04-23T01:17:04;100158.09;;;10.59;75.53
70407;BME280;57821;52.202;0.154;2023-04-23T01:19:30;100158.13;;;10.58;75.76
70407;BME280;57821;52.202;0.154;2023-04-23T01:21:58;100145.22;;;10.52;76.72
70407;BME280;57821;52.202;0.154;2023-04-23T01:24:29;100148.72;;;10.49;76.41
70407;BME280;57821;52.202;0.154;2023-04-23T01:26:57;100145.31;;;10.47;76.56
70407;BME280;57821;52.202;0.154;2023-04-23T01:29:24;100150.47;;;10.47;77.54
70407;BME280;57821;52.202;0.154;2023-04-23T01:31:52;100152.22;;;10.48;78.19
70407;BME280;57821;52.202;0.154;2023-04-23T01:34:19;100146.97;;;10.50;77.86
70407;BME280;57821;52.202;0.154;2023-04-23T01:36:46;100143.50;;;10.52;78.04
70407;BME280;57821;52.202;0.154;2023-04-23T01:39:13;100135.72;;;10.54;78.49
70407;BME280;57821;52.202;0.154;2023-04-23T01:41:40;100138.25;;;10.55;78.56
70407;BME280;57821;52.202;0.154;2023-04-23T01:44:06;100142.56;;;10.58;79.38
70407;BME280;57821;52.202;0.154;2023-04-23T01:46:33;100143.38;;;10.61;80.51
70407;BME280;57821;52.202;0.154;2023-04-23T01:49:00;100145.09;;;10.61;81.22
70407;BME280;57821;52.202;0.154;2023-04-23T01:51:26;100141.66;;;10.60;81.62
70407;BME280;57821;52.202;0.154;2023-04-23T01:53:53;100137.28;;;10.64;82.37
70407;BME280;57821;52.202;0.154;2023-04-23T01:56:24;100127.00;;;10.59;82.61
70407;BME280;57821;52.202;0.154;2023-04-23T01:58:51;100121.75;;;10.64;82.75
70407;BME280;57821;52.202;0.154;2023-04-23T02:01:18;100115.69;;;10.63;82.71
70407;BME280;57821;52.202;0.154;2023-04-23T02:03:45;100123.47;;;10.63;83.40
70407;BME280;57821;52.202;0.154;2023-04-23T02:06:13;100111.44;;;10.59;84.40
70407;BME280;57821;52.202;0.154;2023-04-23T02:08:40;100113.97;;;10.62;84.17
70407;BME280;57821;52.202;0.154;2023-04-23T02:11:06;100107.13;;;10.60;84.47
70407;BME280;57821;52.202;0.154;2023-04-23T02:13:34;100105.34;;;10.60;85.20
70407;BME280;57821;52.202;0.154;2023-04-23T02:16:01;100098.56;;;10.53;85.36
70407;BME280;57821;52.202;0.154;2023-04-23T02:18:28;100088.22;;;10.50;85.10
70407;BME280;57821;52.202;0.154;2023-04-23T02:20:54;100098.50;;;10.56;85.62
70407;BME280;57821;52.202;0.154;2023-04-23T02:23:21;100095.94;;;10.55;85.42
70407;BME280;57821;52.202;0.154;2023-04-23T02:25:48;100101.09;;;10.56;85.68
70407;BME280;57821;52.202;0.154;2023-04-23T02:28:15;100090.00;;;10.48;85.47
70407;BME280;57821;52.202;0.154;2023-04-23T02:30:42;100089.09;;;10.49;86.13
70407;BME280;57821;52.202;0.154;2023-04-23T02:33:09;100085.69;;;10.47;85.97
70407;BME280;57821;52.202;0.154;2023-04-23T02:35:35;100084.84;;;10.45;86.32
70407;BME280;57821;52.202;0.154;2023-04-23T02:38:02;100076.28;;;10.40;86.88
70407;BME280;57821;52.202;0.154;2023-04-23T02:40:29;100074.53;;;10.42;86.94
70407;BME280;57821;52.202;0.154;2023-04-23T02:42:55;100080.63;;;10.38;86.95
70407;BME280;57821;52.202;0.154;2023-04-23T02:45:22;100078.06;;;10.35;86.93
70407;BME280;57821;52.202;0.154;2023-04-23T02:47:49;100079.78;;;10.36;86.99
70407;BME280;57821;52.202;0.154;2023-04-23T02:50:16;100071.97;;;10.38;87.58
70407;BME280;57821;52.202;0.154;2023-04-23T02:52:42;100064.28;;;10.33;87.74
70407;BME280;57821;52.202;0.154;2023-04-23T02:55:09;100076.31;;;10.37;88.48
70407;BME280;57821;52.202;0.154;2023-04-23T02:57:36;100074.63;;;10.36;88.16
70407;BME280;57821;52.202;0.154;2023-04-23T03:00:03;100068.56;;;10.36;88.08
70407;BME280;57821;52.202;0.154;2023-04-23T03:02:34;100062.53;;;10.35;87.87
70407;BME280;57821;52.202;0.154;2023-04-23T03:05:02;100064.25;;;10.36;87.95
70407;BME280;57821;52.202;0.154;2023-04-23T03:07:29;100066.84;;;10.36;88.78
70407;BME280;57821;52.202;0.154;2023-04-23T03:09:56;100051.31;;;10.35;88.56
70407;BME280;57821;52.202;0.154;2023-04-23T03:12:23;100060.72;;;10.40;88.68
70407;BME280;57821;52.202;0.154;2023-04-23T03:14:50;100058.94;;;10.44;88.97
70407;BME280;57821;52.202;0.154;2023-04-23T03:17:17;100061.50;;;10.47;88.47
70407;BME280;57821;52.202;0.154;2023-04-23T03:19:44;100058.94;;;10.45;88.84
70407;BME280;57821;52.202;0.154;2023-04-23T03:22:11;100061.44;;;10.50;88.29
70407;BME280;57821;52.202;0.154;2023-04-23T03:24:38;100061.41;;;10.53;88.37
70407;BME280;57821;52.202;0.154;2023-04-23T03:27:07;100069.16;;;10.54;88.52
70407;BME280;57821;52.202;0.154;2023-04-23T03:29:34;100067.41;;;10.56;88.70
70407;BME280;57821;52.202;0.154;2023-04-23T03:32:00;100063.94;;;10.57;87.99
70407;BME280;57821;52.202;0.154;2023-04-23T03:34:27;100053.56;;;10.56;87.83
70407;BME280;57821;52.202;0.154;2023-04-23T03:36:54;100054.44;;;10.58;87.98
70407;BME280;57821;52.202;0.154;2023-04-23T03:39:20;100057.81;;;10.63;87.85
70407;BME280;57821;52.202;0.154;2023-04-23T03:41:51;100061.25;;;10.63;88.25
70407;BME280;57821;52.202;0.154;2023-04-23T03:44:21;100057.81;;;10.63;87.51
70407;BME280;57821;52.202;0.154;2023-04-23T03:46:49;100055.22;;;10.61;87.61
70407;BME280;57821;52.202;0.154;2023-04-23T03:49:16;100053.47;;;10.65;87.95
70407;BME280;57821;52.202;0.154;2023-04-23T03:51:43;100048.31;;;10.60;88.05
70407;BME280;57821;52.202;0.154;2023-04-23T03:54:10;100065.50;;;10.67;87.47
70407;BME280;57821;52.202;0.154;2023-04-23T03:56:59;100051.72;;;10.65;88.15
70407;BME280;57821;52.202;0.154;2023-04-23T03:59:28;100056.00;;;10.66;87.97
70407;BME280;57821;52.202;0.154;2023-04-23T04:01:57;100043.03;;;10.66;87.42
70407;BME280;57821;52.202;0.154;2023-04-23T04:04:25;100057.63;;;10.75;87.60
70407;BME280;57821;52.202;0.154;2023-04-23T04:06:53;100056.69;;;10.78;87.26
70407;BME280;57821;52.202;0.154;2023-04-23T04:09:26;100052.34;;;10.80;87.63
70407;BME280;57821;52.202;0.154;2023-04-23T04:11:52;100050.63;;;10.80;87.33
70407;BME280;57821;52.202;0.154;2023-04-23T04:14:20;100036.00;;;10.75;87.16
70407;BME280;57821;52.202;0.154;2023-04-23T04:16:47;100049.66;;;10.86;87.35
70407;BME280;57821;52.202;0.154;2023-04-23T04:19:14;100034.19;;;10.81;86.98
70407;BME280;57821;52.202;0.154;2023-04-23T04:21:40;100033.25;;;10.84;87.42
70407;BME280;57821;52.202;0.154;2023-04-23T04:24:07;100035.81;;;10.87;87.56
70407;BME280;57821;52.202;0.154;2023-04-23T04:26:34;100024.69;;;10.80;87.39
70407;BME280;57821;52.202;0.154;2023-04-23T04:29:00;100027.25;;;10.82;87.71
70407;BME280;57821;52.202;0.154;2023-04-23T04:31:28;100026.31;;;10.86;87.17
70407;BME280;57821;52.202;0.154;2023-04-23T04:33:55;100024.59;;;10.85;87.21
70407;BME280;57821;52.202;0.154;2023-04-23T04:36:23;100018.59;;;10.83;87.34
70407;BME280;57821;52.202;0.154;2023-04-23T04:38:50;100027.19;;;10.85;87.74
70407;BME280;57821;52.202;0.154;2023-04-23T04:41:17;100024.69;;;10.80;87.54
70407;BME280;57821;52.202;0.154;2023-04-23T04:43:44;100035.81;;;10.87;87.44
70407;BME280;57821;52.202;0.154;2023-04-23T04:46:11;100024.66;;;10.82;87.39
70407;BME280;57821;52.202;0.154;2023-04-23T04:48:37;100023.81;;;10.80;87.82
70407;BME280;57821;52.202;0.154;2023-04-23T04:51:04;100022.97;;;10.81;86.90
70407;BME280;57821;52.202;0.154;2023-04-23T04:53:31;100028.13;;;10.82;87.61
70407;BME280;57821;52.202;0.154;2023-04-23T04:55:57;100038.50;;;10.82;86.96
70407;BME280;57821;52.202;0.154;2023-04-23T04:58:25;100029.00;;;10.80;87.36
70407;BME280;57821;52.202;0.154;2023-04-23T05:00:52;100029.00;;;10.80;87.01
70407;BME280;57821;52.202;0.154;2023-04-23T05:03:19;100024.75;;;10.77;87.04
70407;BME280;57821;52.202;0.154;2023-04-23T05:05:46;100027.28;;;10.79;86.65
70407;BME280;57821;52.202;0.154;2023-04-23T05:08:13;100036.78;;;10.81;86.37
70407;BME280;57821;52.202;0.154;2023-04-23T05:10:40;100033.31;;;10.82;86.26
70407;BME280;57821;52.202;0.154;2023-04-23T05:13:07;100038.50;;;10.82;86.16
70407;BME280;57821;52.202;0.154;2023-04-23T05:15:33;100046.22;;;10.84;86.27
70407;BME280;57821;52.202;0.154;2023-04-23T05:18:03;100047.94;;;10.85;86.25
70407;BME280;57821;52.202;0.154;2023-04-23T05:20:30;100044.47;;;10.86;86.40
70407;BME280;57821;52.202;0.154;2023-04-23T05:22:57;100048.78;;;10.88;86.22
70407;BME280;57821;52.202;0.154;2023-04-23T05:25:24;100041.00;;;10.87;86.20
70407;BME280;57821;52.202;0.154;2023-04-23T05:27:51;100043.53;;;10.90;86.18
70407;BME280;57821;52.202;0.154;2023-04-23T05:30:17;100042.66;;;10.91;85.76
70407;BME280;57821;52.202;0.154;2023-04-23T05:32:44;100041.78;;;10.93;85.91
70407;BME280;57821;52.202;0.154;2023-04-23T05:35:12;100039.16;;;10.95;85.42
70407;BME280;57821;52.202;0.154;2023-04-23T05:37:39;100036.50;;;10.98;85.45
70407;BME280;57821;52.202;0.154;2023-04-23T05:40:06;100034.69;;;11.01;85.68
70407;BME280;57821;52.202;0.154;2023-04-23T05:42:34;100042.44;;;11.06;85.72
70407;BME280;57821;52.202;0.154;2023-04-23T05:45:02;100033.72;;;11.07;85.34
70407;BME280;57821;52.202;0.154;2023-04-23T05:47:28;100031.97;;;11.09;85.31
70407;BME280;57821;52.202;0.154;2023-04-23T05:49:55;100034.53;;;11.12;84.96
70407;BME280;57821;52.202;0.154;2023-04-23T05:52:22;100035.38;;;11.12;85.01
70407;BME280;57821;52.202;0.154;2023-04-23T05:54:49;100038.81;;;11.15;85.37
70407;BME280;57821;52.202;0.154;2023-04-23T05:57:16;100033.59;;;11.16;84.98
70407;BME280;57821;52.202;0.154;2023-04-23T05:59:43;100031.84;;;11.18;84.65
70407;BME280;57821;52.202;0.154;2023-04-23T06:02:10;100041.22;;;11.25;84.68
70407;BME280;57821;52.202;0.154;2023-04-23T06:04:36;100025.69;;;11.24;84.82
70407;BME280;57821;52.202;0.154;2023-04-23T06:07:03;100030.69;;;11.33;84.94
70407;BME280;57821;52.202;0.154;2023-04-23T06:09:30;100028.09;;;11.34;84.60
70407;BME280;57821;52.202;0.154;2023-04-23T06:11:57;100033.19;;;11.37;84.50
70407;BME280;57821;52.202;0.154;2023-04-23T06:14:23;100026.19;;;11.42;84.38
70407;BME280;57821;52.202;0.154;2023-04-23T06:16:50;100023.63;;;11.41;84.29
70407;BME280;57821;52.202;0.154;2023-04-23T06:19:16;100023.47;;;11.48;83.74
70407;BME280;57821;52.202;0.154;2023-04-23T06:21:43;100013.84;;;11.53;83.53
70407;BME280;57821;52.202;0.154;2023-04-23T06:24:10;100014.69;;;11.56;83.43
70407;BME280;57821;52.202;0.154;2023-04-23T06:26:36;100018.88;;;11.63;83.08
70407;BME280;57821;52.202;0.154;2023-04-23T06:29:10;100021.38;;;11.67;82.77
70407;BME280;57821;52.202;0.154;2023-04-23T06:31:47;100011.84;;;11.68;82.37
70407;BME280;57821;52.202;0.154;2023-04-23T06:34:13;100016.06;;;11.76;82.07
70407;BME280;57821;52.202;0.154;2023-04-23T06:36:40;100022.03;;;11.80;82.02
70407;BME280;57821;52.202;0.154;2023-04-23T06:39:07;100015.88;;;11.84;81.87
70407;BME280;57821;52.202;0.154;2023-04-23T06:41:33;100020.94;;;11.91;81.19
70407;BME280;57821;52.202;0.154;2023-04-23T06:44:12;100023.41;;;11.96;81.35
70407;BME280;57821;52.202;0.154;2023-04-23T06:46:46;100020.72;;;12.01;80.54
70407;BME280;57821;52.202;0.154;2023-04-23T06:49:12;100011.19;;;12.01;80.93
70407;BME280;57821;52.202;0.154;2023-04-23T06:51:39;100008.59;;;12.01;80.32
70407;BME280;57821;52.202;0.154;2023-04-23T06:54:05;100010.19;;;12.08;80.52
70407;BME280;57821;52.202;0.154;2023-04-23T06:56:32;100019.56;;;12.15;80.36
70407;BME280;57821;52.202;0.154;2023-04-23T06:58:59;100026.28;;;12.24;79.75
70407;BME280;57821;52.202;0.154;2023-04-23T07:01:26;100019.34;;;12.24;79.33
70407;BME280;57821;52.202;0.154;2023-04-23T07:03:53;100017.53;;;12.28;79.36
70407;BME280;57821;52.202;0.154;2023-04-23T07:06:20;100029.69;;;12.27;79.05
70407;BME280;57821;52.202;0.154;2023-04-23T07:08:47;100029.59;;;12.30;78.80
70407;BME280;57821;52.202;0.154;2023-04-23T07:11:17;100026.91;;;12.35;78.95
70407;BME280;57821;52.202;0.154;2023-04-23T07:13:43;100028.59;;;12.36;78.06
70407;BME280;57821;52.202;0.154;2023-04-23T07:16:10;100032.06;;;12.37;78.09
70407;BME280;57821;52.202;0.154;2023-04-23T07:18:37;100035.59;;;12.34;78.17
70407;BME280;57821;52.202;0.154;2023-04-23T07:21:03;100028.59;;;12.38;78.38
70407;BME280;57821;52.202;0.154;2023-04-23T07:23:30;100038.00;;;12.42;77.23
70407;BME280;57821;52.202;0.154;2023-04-23T07:25:57;100029.41;;;12.40;77.57
70407;BME280;57821;52.202;0.154;2023-04-23T07:28:23;100042.22;;;12.47;77.79
70407;BME280;57821;52.202;0.154;2023-04-23T07:30:50;100040.44;;;12.51;77.21
70407;BME280;57821;52.202;0.154;2023-04-23T07:33:16;100047.25;;;12.55;77.23
70407;BME280;57821;52.202;0.154;2023-04-23T07:35:43;100058.41;;;12.60;76.23
70407;BME280;57821;52.202;0.154;2023-04-23T07:38:09;100041.09;;;12.59;76.48
70407;BME280;57821;52.202;0.154;2023-04-23T07:40:36;100047.94;;;12.63;75.86
70407;BME280;57821;52.202;0.154;2023-04-23T07:43:03;100059.00;;;12.71;75.75
70407;BME280;57821;52.202;0.154;2023-04-23T07:45:29;100040.78;;;12.72;75.50
70407;BME280;57821;52.202;0.154;2023-04-23T07:47:56;100052.72;;;12.81;75.42
70407;BME280;57821;52.202;0.154;2023-04-23T07:50:23;100035.41;;;12.80;74.85
70407;BME280;57821;52.202;0.154;2023-04-23T07:52:50;100040.44;;;12.86;74.98
70407;BME280;57821;52.202;0.154;2023-04-23T07:55:17;100039.31;;;12.98;75.19
70407;BME280;57821;52.202;0.154;2023-04-23T07:57:43;100037.09;;;13.16;74.99
70407;BME280;57821;52.202;0.154;2023-04-23T08:00:10;100040.06;;;13.37;74.23
70407;BME280;57821;52.202;0.154;2023-04-23T08:02:37;100031.91;;;13.49;74.03
70407;BME280;57821;52.202;0.154;2023-04-23T08:05:04;100039.41;;;13.61;72.91
70407;BME280;57821;52.202;0.154;2023-04-23T08:07:31;100040.13;;;13.66;72.47
70407;BME280;57821;52.202;0.154;2023-04-23T08:09:58;100045.22;;;13.69;72.52
70407;BME280;57821;52.202;0.154;2023-04-23T08:12:25;100027.84;;;13.70;71.73
70407;BME280;57821;52.202;0.154;2023-04-23T08:14:52;100041.41;;;13.82;71.74
70407;BME280;57821;52.202;0.154;2023-04-23T08:17:24;100044.41;;;13.98;71.44
70407;BME280;57821;52.202;0.154;2023-04-23T08:19:50;100042.31;;;14.11;70.89
70407;BME280;57821;52.202;0.154;2023-04-23T08:22:17;100048.13;;;14.20;69.81
70407;BME280;57821;52.202;0.154;2023-04-23T08:24:45;100049.63;;;14.27;68.62
70407;BME280;57821;52.202;0.154;2023-04-23T08:27:12;100048.56;;;14.34;69.17
70407;BME280;57821;52.202;0.154;2023-04-23T08:29:39;100050.94;;;14.44;68.72
70407;BME280;57821;52.202;0.154;2023-04-23T08:32:06;100045.47;;;14.51;67.87
70407;BME280;57821;52.202;0.154;2023-04-23T08:34:32;100045.13;;;14.62;67.70
70407;BME280;57821;52.202;0.154;2023-04-23T08:37:01;100044.81;;;14.72;67.71
70407;BME280;57821;52.202;0.154;2023-04-23T08:39:27;100034.25;;;14.75;66.94
70407;BME280;57821;52.202;0.154;2023-04-23T08:41:54;100045.31;;;14.84;65.77
70407;BME280;57821;52.202;0.154;2023-04-23T08:44:22;100050.41;;;14.87;65.30
70407;BME280;57821;52.202;0.154;2023-04-23T08:46:49;100047.84;;;14.85;65.19
70407;BME280;57821;52.202;0.154;2023-04-23T08:49:18;100040.75;;;14.90;65.11
70407;BME280;57821;52.202;0.154;2023-04-23T08:51:48;100033.06;;;14.86;64.23
70407;BME280;57821;52.202;0.154;2023-04-23T08:54:21;100047.66;;;14.91;64.27
70407;BME280;57821;52.202;0.154;2023-04-23T08:56:48;100046.75;;;14.92;64.34
70407;BME280;57821;52.202;0.154;2023-04-23T08:59:17;100048.44;;;14.95;63.86
70407;BME280;57821;52.202;0.154;2023-04-23T09:01:44;100036.69;;;15.08;63.90
70407;BME280;57821;52.202;0.154;2023-04-23T09:04:12;100038.97;;;15.17;63.53
70407;BME280;57821;52.202;0.154;2023-04-23T09:06:38;100033.22;;;15.32;62.57
70407;BME280;57821;52.202;0.154;2023-04-23T09:09:05;100037.94;;;15.47;62.34
70407;BME280;57821;52.202;0.154;2023-04-23T09:11:34;100038.09;;;15.68;62.28
70407;BME280;57821;52.202;0.154;2023-04-23T09:14:02;100031.97;;;15.92;62.35
70407;BME280;57821;52.202;0.154;2023-04-23T09:16:29;100039.41;;;16.26;61.64
70407;BME280;57821;52.202;0.154;2023-04-23T09:18:55;100036.72;;;16.51;60.68
70407;BME280;57821;52.202;0.154;2023-04-23T09:21:22;100031.81;;;16.65;59.58
70407;BME280;57821;52.202;0.154;2023-04-23T09:23:50;100032.53;;;16.68;59.23
70407;BME280;57821;52.202;0.154;2023-04-23T09:26:20;100039.34;;;16.72;57.82
70407;BME280;57821;52.202;0.154;2023-04-23T09:28:48;100040.09;;;16.76;58.40
70407;BME280;57821;52.202;0.154;2023-04-23T09:31:22;100046.19;;;16.76;58.14
70407;BME280;57821;52.202;0.154;2023-04-23T09:33:51;100038.38;;;16.75;55.65
70407;BME280;57821;52.202;0.154;2023-04-23T09:36:20;100036.41;;;16.58;56.21
70407;BME280;57821;52.202;0.154;2023-04-23T09:38:47;100035.19;;;16.45;56.92
70407;BME280;57821;52.202;0.154;2023-04-23T09:41:24;100025.25;;;16.31;55.45
70407;BME280;57821;52.202;0.154;2023-04-23T09:43:52;100022.41;;;16.14;56.03
70407;BME280;57821;52.202;0.154;2023-04-23T09:46:36;100038.03;;;15.94;55.57
70407;BME280;57821;52.202;0.154;2023-04-23T09:49:04;100037.78;;;15.77;56.60
70407;BME280;57821;52.202;0.154;2023-04-23T09:51:31;100027.94;;;15.60;57.46
70407;BME280;57821;52.202;0.154;2023-04-23T09:54:00;100029.28;;;15.45;57.85
70407;BME280;57821;52.202;0.154;2023-04-23T09:56:29;100032.53;;;15.27;58.52
70407;BME280;57821;52.202;0.154;2023-04-23T09:58:56;100025.38;;;15.07;59.18
70407;BME280;57821;52.202;0.154;2023-04-23T10:01:29;100033.50;;;14.98;60.41
70407;BME280;57821;52.202;0.154;2023-04-23T10:03:55;100033.78;;;14.91;60.69
70407;BME280;57821;52.202;0.154;2023-04-23T10:06:29;100024.53;;;14.80;61.12
70407;BME280;57821;52.202;0.154;2023-04-23T10:09:12;100029.75;;;14.80;61.92
70407;BME280;57821;52.202;0.154;2023-04-23T10:11:40;100021.91;;;14.80;62.55
70407;BME280;57821;52.202;0.154;2023-04-23T10:14:07;100030.41;;;14.87;62.40
70407;BME280;57821;52.202;0.154;2023-04-23T10:16:35;100026.03;;;14.88;62.29
70407;BME280;57821;52.202;0.154;2023-04-23T10:19:17;100027.94;;;14.83;61.74
70407;BME280;57821;52.202;0.154;2023-04-23T10:21:45;100020.31;;;14.76;61.22
70407;BME280;57821;52.202;0.154;2023-04-23T10:24:28;100025.63;;;14.73;61.64
70407;BME280;57821;52.202;0.154;2023-04-23T10:27:03;100024.91;;;14.68;62.11
70407;BME280;57821;52.202;0.154;2023-04-23T10:29:31;100025.63;;;14.73;62.49
70407;BME280;57821;52.202;0.154;2023-04-23T10:32:01;100023.81;;;14.75;63.20
70407;BME280;57821;52.202;0.154;2023-04-23T10:34:29;100019.50;;;14.74;62.87
70407;BME280;57821;52.202;0.154;2023-04-23T10:36:57;100023.31;;;14.64;62.74
70407;BME280;57821;52.202;0.154;2023-04-23T10:39:31;100028.91;;;14.52;62.57
70407;BME280;57821;52.202;0.154;2023-04-23T10:41:58;100016.28;;;14.38;63.34
70407;BME280;57821;52.202;0.154;2023-04-23T10:44:36;100032.72;;;14.42;64.87
70407;BME280;57821;52.202;0.154;2023-04-23T10:47:13;100024.66;;;14.50;65.01
70407;BME280;57821;52.202;0.154;2023-04-23T10:49:43;100007.97;;;14.55;64.68
70407;BME280;57821;52.202;0.154;2023-04-23T10:52:13;100016.31;;;14.66;64.52
70407;BME280;57821;52.202;0.154;2023-04-23T10:54:49;100015.94;;;14.77;64.50
70407;BME280;57821;52.202;0.154;2023-04-23T10:57:21;100015.59;;;14.88;65.07
70407;BME280;57821;52.202;0.154;2023-04-23T10:59:53;100017.97;;;14.95;64.62
70407;BME280;57821;52.202;0.154;2023-04-23T11:02:22;100022.13;;;15.01;64.14
70407;BME280;57821;52.202;0.154;2023-04-23T11:04:57;100018.63;;;15.02;64.76
70407;BME280;57821;52.202;0.154;2023-04-23T11:07:31;100027.03;;;15.10;65.52
70407;BME280;57821;52.202;0.154;2023-04-23T11:09:59;100025.66;;;15.25;65.03
70407;BME280;57821;52.202;0.154;2023-04-23T11:12:37;100019.22;;;15.35;65.17
70407;BME280;57821;52.202;0.154;2023-04-23T11:15:13;100004.06;;;15.44;65.42
70407;BME280;57821;52.202;0.154;2023-04-23T11:20:18;99998.91;;;15.68;64.30
70407;BME280;57821;52.202;0.154;2023-04-23T11:22:46;100001.97;;;15.79;64.06
70407;BME280;57821;52.202;0.154;2023-04-23T11:25:14;100003.22;;;15.92;63.28
70407;BME280;57821;52.202;0.154;2023-04-23T11:27:43;99999.34;;;16.02;63.26
70407;BME280;57821;52.202;0.154;2023-04-23T11:30:15;99995.59;;;16.09;60.80
70407;BME280;57821;52.202;0.154;2023-04-23T11:32:48;100003.09;;;16.18;61.64
70407;BME280;57821;52.202;0.154;2023-04-23T11:35:20;100002.69;;;16.29;61.80
70407;BME280;57821;52.202;0.154;2023-04-23T11:37:48;99995.13;;;16.43;61.17
70407;BME280;57821;52.202;0.154;2023-04-23T11:40:18;100000.63;;;16.59;60.78
70407;BME280;57821;52.202;0.154;2023-04-23T11:42:49;99994.00;;;16.72;59.04
70407;BME280;57821;52.202;0.154;2023-04-23T11:45:27;99997.16;;;16.80;58.68
70407;BME280;57821;52.202;0.154;2023-04-23T11:47:55;100005.31;;;16.94;58.94
70407;BME280;57821;52.202;0.154;2023-04-23T11:50:27;99996.22;;;17.03;58.70
70407;BME280;57821;52.202;0.154;2023-04-23T11:52:55;99993.22;;;17.12;58.83
70407;BME280;57821;52.202;0.154;2023-04-23T11:55:22;100001.59;;;17.20;58.67
70407;BME280;57821;52.202;0.154;2023-04-23T11:57:50;99989.28;;;17.22;58.76
70407;BME280;57821;52.202;0.154;2023-04-23T12:00:22;99992.59;;;17.25;57.68
70407;BME280;57821;52.202;0.154;2023-04-23T12:05:28;99990.06;;;17.44;57.63
70407;BME280;57821;52.202;0.154;2023-04-23T12:08:17;99993.25;;;17.51;56.02
70407;BME280;57821;52.202;0.154;2023-04-23T12:10:59;99993.31;;;17.49;56.37
70407;BME280;57821;52.202;0.154;2023-04-23T12:13:28;99985.44;;;17.49;55.37
70407;BME280;57821;52.202;0.154;2023-04-23T12:16:03;99984.88;;;17.43;55.06
70407;BME280;57821;52.202;0.154;2023-04-23T12:18:35;99988.41;;;17.42;54.92
70407;BME280;57821;52.202;0.154;2023-04-23T12:21:09;99982.88;;;17.29;54.38
70407;BME280;57821;52.202;0.154;2023-04-23T12:23:37;99982.13;;;17.25;53.74
70407;BME280;57821;52.202;0.154;2023-04-23T12:26:09;99979.66;;;17.22;53.82
70407;BME280;57821;52.202;0.154;2023-04-23T12:28:49;99979.00;;;17.17;53.12
70407;BME280;57821;52.202;0.154;2023-04-23T12:31:20;99975.72;;;17.12;53.90
70407;BME280;57821;52.202;0.154;2023-04-23T12:33:55;99984.41;;;17.13;54.26
70407;BME280;57821;52.202;0.154;2023-04-23T12:36:26;99975.72;;;17.12;53.47
70407;BME280;57821;52.202;0.154;2023-04-23T12:38:53;99981.25;;;17.06;54.25
70407;BME280;57821;52.202;0.154;2023-04-23T12:41:19;99982.25;;;17.02;54.57
70407;BME280;57821;52.202;0.154;2023-04-23T12:43:46;99971.97;;;16.98;54.31
70407;BME280;57821;52.202;0.154;2023-04-23T12:46:13;99975.06;;;16.87;53.63
70407;BME280;57821;52.202;0.154;2023-04-23T12:48:40;99977.13;;;16.79;54.54
70407;BME280;57821;52.202;0.154;2023-04-23T12:51:06;99964.28;;;16.73;53.90
70407;BME280;57821;52.202;0.154;2023-04-23T12:53:33;99964.63;;;16.65;54.19
70407;BME280;57821;52.202;0.154;2023-04-23T12:55:59;99966.56;;;16.60;54.17
70407;BME280;57821;52.202;0.154;2023-04-23T12:58:26;99960.03;;;16.49;54.46
70407;BME280;57821;52.202;0.154;2023-04-23T13:00:52;99965.44;;;16.44;53.90